Estación Meteorológica Peña el Pijo (Robertgarden) [ 09/22/18 22:15:38 CEST ]

Fecha Hora Presion(HPa) Temp (°C) Humedad % Rocio (°C) Viento ( m/s) Direccion Lluvia 1Hora(mm) Lluvia 24H(mm) LLuvia Total(mm)
2018-Mar-29 01:01:47 1005.500 7.6 65 1.4         182.85
2018-Mar-29 02:01:49 1005.100 7.9 64 1.5         182.85
2018-Mar-29 03:02:07 1004.300 9.9 62 2.9         182.85
2018-Mar-29 04:02:05 1003.500 9.9 61 2.7         182.85
2018-Mar-29 05:02:04 1003.000 8.4 62 1.5 1.1 NW     182.85
2018-Mar-29 06:02:17 1002.900 7.9 61 0.8         182.85
2018-Mar-29 07:01:46 1002.900 8.1 63 1.4         182.85
2018-Mar-29 08:01:33 1002.700 8.2 58 0.4 1.3 NNE     182.85
2018-Mar-29 09:01:48 1003.000 7.6 56 -0.7         182.85
2018-Mar-29 10:01:50 1002.700 13.1 45 1.3 0.7 WNW     182.85
2018-Mar-29 11:01:33 1002.700 14.9 42 2.0 4.5 WNW     182.85
2018-Mar-29 12:01:53 1002.400 18.2 38 3.6 1.6 NNW     182.85
2018-Mar-29 13:01:50 1002.200 19.5 34 3.1         182.85
2018-Mar-29 14:01:51 1002.200 18.5 32 1.4         182.85
2018-Mar-29 15:01:45 1001.700 19.4 27 -0.2         182.85
2018-Mar-29 16:01:47 1001.000 20.4 23 -1.6 2.4 NW     182.85
2018-Mar-29 17:01:42 1000.500 19.6 22 -2.9         182.85
2018-Mar-29 18:02:07 1000.300 18.4 25 -2.2 2.3 WNW     182.85
2018-Mar-29 19:02:13 1000.300 16.4 28 -2.3 4.1 N     182.85
2018-Mar-29 20:01:47 1000.400 13.2 43 0.8         182.85
2018-Mar-29 21:01:44 1000.600 11.1 55 2.3         182.85
2018-Mar-29 22:01:59 1001.100 9.4 60 2.1         182.85
2018-Mar-29 23:01:59 1001.200 8.6 62 1.7         182.85

Temperatura Máxima:20°    Temperatura Mínima:
Presión Máxima:1005.500 Hpa    Presión Mínima:1000.300 Hpa


Volver